LAN417 SAZN-SCEL
Flight info
| Callsign | LAN417 |
|---|---|
| Flight time | 1h 8m |
| Altitude | 34000 |
| Route | UGAGI1C UGAGI UZ122 ANKON UT122 EROLO EROLO6E |
| Aircraft | A320/M-SDE3FGHIRWY/LB1 |
Departure
| Time | 2026-04-25 14:40 |
|---|---|
| Airport | Presidente Perón International Airport (SAZN) |
Arrival
| Time | 2026-04-25 15:48 |
|---|---|
| Airport | Comodoro Arturo Merino Benítez International Airport (SCEL) |
| Time | Latitude | Longitude | Altitude | Speed | Heading |
|---|---|---|---|---|---|
| 2026-04-25 13:37 | -38.95158 | -68.14069 | 906 ft | 0 kts | 180° |
| 2026-04-25 14:34 | -38.95157 | -68.14069 | 904 ft | 2 kts | 180° |
| 2026-04-25 14:35 | -38.95135 | -68.14069 | 910 ft | 2 kts | 180° |
| 2026-04-25 14:35 | -38.95111 | -68.14066 | 906 ft | 4 kts | 209° |
| 2026-04-25 14:35 | -38.95096 | -68.14043 | 906 ft | 4 kts | 269° |
| 2026-04-25 14:35 | -38.95096 | -68.14010 | 907 ft | 4 kts | 270° |
| 2026-04-25 14:36 | -38.95097 | -68.13994 | 905 ft | 0 kts | 270° |
| 2026-04-25 14:39 | -38.95096 | -68.14012 | 904 ft | 5 kts | 270° |
| 2026-04-25 14:39 | -38.95088 | -68.14088 | 904 ft | 12 kts | 306° |
| 2026-04-25 14:39 | -38.94987 | -68.14111 | 904 ft | 18 kts | 8° |
| 2026-04-25 14:39 | -38.94903 | -68.14172 | 905 ft | 15 kts | 277° |
| 2026-04-25 14:40 | -38.94906 | -68.14332 | 904 ft | 26 kts | 271° |
| 2026-04-25 14:40 | -38.94904 | -68.14917 | 902 ft | 102 kts | 272° |
| 2026-04-25 14:40 | -38.94898 | -68.16089 | 929 ft | 156 kts | 266° |
| 2026-04-25 14:40 | -38.94885 | -68.17471 | 1691 ft | 153 kts | 268° |
| 2026-04-25 14:41 | -38.94883 | -68.18849 | 2477 ft | 159 kts | 266° |
| 2026-04-25 14:41 | -38.94883 | -68.20378 | 2912 ft | 184 kts | 266° |
| 2026-04-25 14:41 | -38.94883 | -68.22127 | 3434 ft | 208 kts | 266° |
| 2026-04-25 14:41 | -38.94881 | -68.24028 | 4264 ft | 215 kts | 266° |
| 2026-04-25 14:42 | -38.94868 | -68.25953 | 5250 ft | 221 kts | 269° |
| 2026-04-25 14:42 | -38.94669 | -68.27293 | 5576 ft | 242 kts | 288° |
| 2026-04-25 14:42 | -38.93029 | -68.29462 | 6701 ft | 269 kts | 323° |
| 2026-04-25 14:42 | -38.91409 | -68.30702 | 7684 ft | 272 kts | 324° |
| 2026-04-25 14:43 | -38.89764 | -68.31937 | 8662 ft | 275 kts | 324° |
| 2026-04-25 14:43 | -38.88096 | -68.33185 | 9644 ft | 279 kts | 324° |
| 2026-04-25 14:43 | -38.86396 | -68.34464 | 10368 ft | 293 kts | 324° |
| 2026-04-25 14:43 | -38.84569 | -68.35851 | 10761 ft | 315 kts | 324° |
| 2026-04-25 14:44 | -38.82680 | -68.37283 | 11486 ft | 323 kts | 324° |
| 2026-04-25 14:44 | -38.80735 | -68.38754 | 12353 ft | 327 kts | 324° |
| 2026-04-25 14:44 | -38.78764 | -68.40244 | 13244 ft | 331 kts | 323° |
| 2026-04-25 14:44 | -38.76775 | -68.41747 | 14109 ft | 334 kts | 323° |
| 2026-04-25 14:45 | -38.74761 | -68.43268 | 14871 ft | 338 kts | 323° |
| 2026-04-25 14:45 | -38.72722 | -68.44808 | 15621 ft | 342 kts | 323° |
| 2026-04-25 14:45 | -38.70659 | -68.46366 | 16369 ft | 346 kts | 323° |
| 2026-04-25 14:45 | -38.68573 | -68.47941 | 17094 ft | 350 kts | 323° |
| 2026-04-25 14:46 | -38.66465 | -68.49535 | 17812 ft | 354 kts | 323° |
| 2026-04-25 14:46 | -38.64325 | -68.51150 | 18526 ft | 359 kts | 323° |
| 2026-04-25 14:46 | -38.62162 | -68.52782 | 19139 ft | 363 kts | 323° |
| 2026-04-25 14:46 | -38.59975 | -68.54430 | 19758 ft | 367 kts | 323° |
| 2026-04-25 14:47 | -38.57794 | -68.56070 | 20368 ft | 371 kts | 323° |
| 2026-04-25 14:47 | -38.56289 | -68.57201 | 20785 ft | 374 kts | 323° |
| 2026-04-25 14:47 | -38.53296 | -68.59450 | 21607 ft | 379 kts | 323° |
| 2026-04-25 14:47 | -38.51013 | -68.61168 | 22231 ft | 383 kts | 323° |
| 2026-04-25 14:48 | -38.48704 | -68.62908 | 22855 ft | 387 kts | 323° |
| 2026-04-25 14:48 | -38.46369 | -68.64661 | 23479 ft | 391 kts | 323° |
| 2026-04-25 14:48 | -38.44010 | -68.66426 | 24028 ft | 395 kts | 323° |
| 2026-04-25 14:48 | -38.41628 | -68.68209 | 24543 ft | 399 kts | 323° |
| 2026-04-25 14:49 | -38.39226 | -68.70008 | 25049 ft | 402 kts | 323° |
| 2026-04-25 14:49 | -38.36801 | -68.71823 | 25561 ft | 405 kts | 323° |
| 2026-04-25 14:49 | -38.34360 | -68.73649 | 26052 ft | 408 kts | 323° |
| 2026-04-25 14:49 | -38.31899 | -68.75487 | 26535 ft | 411 kts | 323° |
| 2026-04-25 14:50 | -38.29419 | -68.77338 | 27005 ft | 414 kts | 323° |
| 2026-04-25 14:50 | -38.26921 | -68.79196 | 27454 ft | 417 kts | 323° |
| 2026-04-25 14:50 | -38.24407 | -68.81066 | 27907 ft | 420 kts | 323° |
| 2026-04-25 14:50 | -38.21876 | -68.82948 | 28348 ft | 423 kts | 323° |
| 2026-04-25 14:51 | -38.19323 | -68.84844 | 28786 ft | 426 kts | 323° |
| 2026-04-25 14:51 | -38.16751 | -68.86753 | 29203 ft | 429 kts | 323° |
| 2026-04-25 14:51 | -38.14163 | -68.88676 | 29611 ft | 432 kts | 323° |
| 2026-04-25 14:51 | -38.11557 | -68.90610 | 30012 ft | 435 kts | 323° |
| 2026-04-25 14:52 | -38.08937 | -68.92553 | 30376 ft | 438 kts | 323° |
| 2026-04-25 14:52 | -38.06296 | -68.94507 | 30698 ft | 440 kts | 323° |
| 2026-04-25 14:52 | -38.03645 | -68.96469 | 31016 ft | 443 kts | 323° |
| 2026-04-25 14:52 | -38.01844 | -68.97801 | 31224 ft | 444 kts | 323° |
| 2026-04-25 14:53 | -37.98295 | -69.00430 | 31631 ft | 447 kts | 323° |
| 2026-04-25 14:53 | -37.95605 | -69.02421 | 31941 ft | 449 kts | 323° |
| 2026-04-25 14:53 | -37.92908 | -69.04409 | 32372 ft | 448 kts | 323° |
| 2026-04-25 14:53 | -37.90216 | -69.06386 | 32806 ft | 447 kts | 323° |
| 2026-04-25 14:54 | -37.87529 | -69.08356 | 33233 ft | 446 kts | 323° |
| 2026-04-25 14:54 | -37.84846 | -69.10321 | 33657 ft | 444 kts | 323° |
| 2026-04-25 14:54 | -37.82172 | -69.12283 | 34042 ft | 444 kts | 323° |
| 2026-04-25 14:54 | -37.79463 | -69.14171 | 34150 ft | 446 kts | 328° |
| 2026-04-25 14:55 | -37.73850 | -69.17219 | 34171 ft | 435 kts | 330° |
| 2026-04-25 14:55 | -37.68293 | -69.20210 | 34171 ft | 433 kts | 329° |
| 2026-04-25 14:56 | -37.62756 | -69.23211 | 34167 ft | 433 kts | 329° |
| 2026-04-25 14:56 | -37.57219 | -69.26220 | 34165 ft | 433 kts | 329° |
| 2026-04-25 14:57 | -37.51672 | -69.29215 | 34158 ft | 434 kts | 329° |
| 2026-04-25 14:57 | -37.46156 | -69.32176 | 34155 ft | 434 kts | 329° |
| 2026-04-25 14:58 | -37.40600 | -69.35152 | 34149 ft | 434 kts | 329° |
| 2026-04-25 14:58 | -37.35043 | -69.38133 | 34145 ft | 434 kts | 329° |
| 2026-04-25 14:59 | -37.29489 | -69.41111 | 34134 ft | 434 kts | 329° |
| 2026-04-25 14:59 | -37.23928 | -69.44086 | 34128 ft | 434 kts | 329° |
| 2026-04-25 15:00 | -37.18366 | -69.47049 | 34130 ft | 434 kts | 329° |
| 2026-04-25 15:00 | -37.12798 | -69.50017 | 34121 ft | 435 kts | 329° |
| 2026-04-25 15:01 | -37.07232 | -69.52980 | 34124 ft | 435 kts | 329° |
| 2026-04-25 15:01 | -37.01657 | -69.55945 | 34133 ft | 435 kts | 329° |
| 2026-04-25 15:02 | -36.96087 | -69.58901 | 34129 ft | 435 kts | 329° |
| 2026-04-25 15:02 | -36.90511 | -69.61852 | 34114 ft | 435 kts | 329° |
| 2026-04-25 15:03 | -36.84943 | -69.64795 | 34109 ft | 435 kts | 329° |
| 2026-04-25 15:03 | -36.79372 | -69.67741 | 34104 ft | 435 kts | 329° |
| 2026-04-25 15:04 | -36.73798 | -69.70681 | 34101 ft | 435 kts | 329° |
| 2026-04-25 15:04 | -36.68218 | -69.73617 | 34099 ft | 435 kts | 329° |
| 2026-04-25 15:05 | -36.62642 | -69.76541 | 34100 ft | 435 kts | 329° |
| 2026-04-25 15:06 | -36.54283 | -69.80930 | 34102 ft | 434 kts | 329° |
| 2026-04-25 15:06 | -36.48675 | -69.83868 | 34102 ft | 434 kts | 329° |
| 2026-04-25 15:07 | -36.43102 | -69.86776 | 34109 ft | 434 kts | 329° |
| 2026-04-25 15:07 | -36.37537 | -69.89678 | 34112 ft | 434 kts | 329° |
| 2026-04-25 15:08 | -36.31976 | -69.92576 | 34114 ft | 433 kts | 329° |
| 2026-04-25 15:08 | -36.26418 | -69.95470 | 34124 ft | 433 kts | 329° |
| 2026-04-25 15:09 | -36.20866 | -69.98357 | 34127 ft | 433 kts | 329° |
| 2026-04-25 15:09 | -36.12538 | -70.02669 | 34133 ft | 432 kts | 329° |
| 2026-04-25 15:10 | -36.06992 | -70.05537 | 34136 ft | 432 kts | 329° |
| 2026-04-25 15:11 | -35.98687 | -70.09821 | 34139 ft | 431 kts | 329° |
| 2026-04-25 15:11 | -35.93161 | -70.12676 | 34143 ft | 430 kts | 329° |
| 2026-04-25 15:12 | -35.85807 | -70.16469 | 34155 ft | 430 kts | 329° |
| 2026-04-25 15:12 | -35.81217 | -70.18828 | 34163 ft | 430 kts | 329° |
| 2026-04-25 15:13 | -35.72006 | -70.23555 | 34173 ft | 429 kts | 329° |
| 2026-04-25 15:14 | -35.66500 | -70.26365 | 34181 ft | 429 kts | 329° |
| 2026-04-25 15:14 | -35.60997 | -70.29180 | 34182 ft | 428 kts | 329° |
| 2026-04-25 15:15 | -35.55508 | -70.31985 | 34175 ft | 427 kts | 329° |
| 2026-04-25 15:15 | -35.50013 | -70.34789 | 34185 ft | 427 kts | 328° |
| 2026-04-25 15:16 | -35.44525 | -70.37582 | 34186 ft | 427 kts | 328° |
| 2026-04-25 15:16 | -35.36286 | -70.41755 | 34193 ft | 426 kts | 328° |
| 2026-04-25 15:17 | -35.28063 | -70.45926 | 34197 ft | 426 kts | 328° |
| 2026-04-25 15:18 | -35.22873 | -70.49196 | 34201 ft | 410 kts | 314° |
| 2026-04-25 15:18 | -35.19069 | -70.54078 | 34204 ft | 388 kts | 295° |
| 2026-04-25 15:18 | -35.17785 | -70.56929 | 34200 ft | 379 kts | 286° |
| 2026-04-25 15:19 | -35.16195 | -70.61887 | 34201 ft | 376 kts | 284° |
| 2026-04-25 15:19 | -35.13953 | -70.68860 | 34203 ft | 377 kts | 284° |
| 2026-04-25 15:20 | -35.12029 | -70.74814 | 34204 ft | 377 kts | 284° |
| 2026-04-25 15:20 | -35.10094 | -70.80762 | 34205 ft | 377 kts | 285° |
| 2026-04-25 15:21 | -35.08161 | -70.86691 | 34208 ft | 375 kts | 284° |
| 2026-04-25 15:21 | -35.06164 | -70.92602 | 34219 ft | 381 kts | 290° |
| 2026-04-25 15:22 | -35.04696 | -70.95343 | 34219 ft | 391 kts | 301° |
| 2026-04-25 15:22 | -35.02787 | -70.97758 | 34229 ft | 399 kts | 308° |
| 2026-04-25 15:22 | -34.98734 | -71.02397 | 34229 ft | 399 kts | 307° |
| 2026-04-25 15:23 | -34.94680 | -71.07029 | 34234 ft | 399 kts | 307° |
| 2026-04-25 15:23 | -34.90634 | -71.11657 | 34239 ft | 399 kts | 307° |
| 2026-04-25 15:24 | -34.86598 | -71.16282 | 34244 ft | 398 kts | 307° |
| 2026-04-25 15:24 | -34.83235 | -71.20108 | 34244 ft | 398 kts | 307° |
| 2026-04-25 15:25 | -34.78514 | -71.25476 | 34241 ft | 397 kts | 307° |
| 2026-04-25 15:25 | -34.74482 | -71.30072 | 34088 ft | 398 kts | 307° |
| 2026-04-25 15:26 | -34.72461 | -71.32373 | 33812 ft | 397 kts | 307° |
| 2026-04-25 15:26 | -34.70450 | -71.34661 | 33540 ft | 396 kts | 308° |
| 2026-04-25 15:26 | -34.68227 | -71.36707 | 33264 ft | 409 kts | 321° |
| 2026-04-25 15:26 | -34.65553 | -71.38065 | 32996 ft | 426 kts | 336° |
| 2026-04-25 15:27 | -34.62561 | -71.38529 | 32731 ft | 443 kts | 353° |
| 2026-04-25 15:27 | -34.59467 | -71.37962 | 32465 ft | 459 kts | 11° |
| 2026-04-25 15:27 | -34.53475 | -71.35089 | 31958 ft | 463 kts | 15° |
| 2026-04-25 15:28 | -34.50503 | -71.33616 | 31520 ft | 460 kts | 16° |
| 2026-04-25 15:28 | -34.47537 | -71.32149 | 30899 ft | 461 kts | 16° |
| 2026-04-25 15:28 | -34.44563 | -71.30684 | 30290 ft | 461 kts | 16° |
| 2026-04-25 15:28 | -34.41596 | -71.29226 | 29643 ft | 459 kts | 17° |
| 2026-04-25 15:29 | -34.38645 | -71.27778 | 29064 ft | 456 kts | 17° |
| 2026-04-25 15:29 | -34.35723 | -71.26347 | 28514 ft | 450 kts | 17° |
| 2026-04-25 15:29 | -34.32844 | -71.24937 | 27975 ft | 442 kts | 17° |
| 2026-04-25 15:29 | -34.30017 | -71.23550 | 27434 ft | 436 kts | 17° |
| 2026-04-25 15:30 | -34.27222 | -71.22180 | 26902 ft | 430 kts | 18° |
| 2026-04-25 15:30 | -34.24469 | -71.20829 | 26373 ft | 424 kts | 18° |
| 2026-04-25 15:30 | -34.21753 | -71.19500 | 25852 ft | 419 kts | 18° |
| 2026-04-25 15:30 | -34.19063 | -71.18183 | 25319 ft | 414 kts | 18° |
| 2026-04-25 15:31 | -34.16410 | -71.16888 | 24776 ft | 410 kts | 19° |
| 2026-04-25 15:31 | -34.13772 | -71.15606 | 24227 ft | 405 kts | 19° |
| 2026-04-25 15:31 | -34.11167 | -71.14344 | 23653 ft | 402 kts | 19° |
| 2026-04-25 15:31 | -34.08579 | -71.13090 | 23066 ft | 399 kts | 20° |
| 2026-04-25 15:32 | -34.06023 | -71.11847 | 22528 ft | 393 kts | 20° |
| 2026-04-25 15:32 | -34.03503 | -71.10620 | 22003 ft | 389 kts | 20° |
| 2026-04-25 15:32 | -34.00995 | -71.09401 | 21488 ft | 388 kts | 20° |
| 2026-04-25 15:33 | -33.95983 | -71.06969 | 20534 ft | 387 kts | 20° |
| 2026-04-25 15:33 | -33.93486 | -71.05760 | 20063 ft | 387 kts | 21° |
| 2026-04-25 15:33 | -33.90986 | -71.04549 | 19605 ft | 387 kts | 21° |
| 2026-04-25 15:33 | -33.88492 | -71.03340 | 19143 ft | 387 kts | 21° |
| 2026-04-25 15:34 | -33.85996 | -71.02132 | 18686 ft | 387 kts | 21° |
| 2026-04-25 15:34 | -33.83504 | -71.00928 | 18190 ft | 385 kts | 21° |
| 2026-04-25 15:34 | -33.81025 | -70.99732 | 17732 ft | 383 kts | 21° |
| 2026-04-25 15:34 | -33.79391 | -70.98944 | 17431 ft | 381 kts | 21° |
| 2026-04-25 15:35 | -33.73740 | -70.96216 | 16407 ft | 365 kts | 21° |
| 2026-04-25 15:35 | -33.71407 | -70.95088 | 15984 ft | 357 kts | 21° |
| 2026-04-25 15:35 | -33.69123 | -70.93982 | 15572 ft | 350 kts | 21° |
| 2026-04-25 15:36 | -33.64682 | -70.91834 | 14764 ft | 338 kts | 21° |
| 2026-04-25 15:36 | -33.62539 | -70.90803 | 14374 ft | 333 kts | 21° |
| 2026-04-25 15:36 | -33.60405 | -70.89780 | 13988 ft | 328 kts | 21° |
| 2026-04-25 15:37 | -33.58297 | -70.88768 | 13566 ft | 323 kts | 21° |
| 2026-04-25 15:37 | -33.56246 | -70.87734 | 13178 ft | 316 kts | 27° |
| 2026-04-25 15:37 | -33.54319 | -70.86502 | 12795 ft | 314 kts | 28° |
| 2026-04-25 15:37 | -33.52400 | -70.85259 | 12410 ft | 314 kts | 28° |
| 2026-04-25 15:38 | -33.50481 | -70.84006 | 12015 ft | 314 kts | 28° |
| 2026-04-25 15:38 | -33.48562 | -70.82753 | 11608 ft | 314 kts | 28° |
| 2026-04-25 15:38 | -33.46651 | -70.81503 | 11346 ft | 309 kts | 28° |
| 2026-04-25 15:38 | -33.44761 | -70.80267 | 10925 ft | 310 kts | 28° |
| 2026-04-25 15:39 | -33.42849 | -70.79141 | 10644 ft | 304 kts | 19° |
| 2026-04-25 15:39 | -33.40809 | -70.78577 | 10062 ft | 300 kts | 4° |
| 2026-04-25 15:39 | -33.38740 | -70.78599 | 9311 ft | 297 kts | 357° |
| 2026-04-25 15:39 | -33.36686 | -70.78721 | 8582 ft | 294 kts | 357° |
| 2026-04-25 15:40 | -33.34645 | -70.78837 | 7882 ft | 291 kts | 357° |
| 2026-04-25 15:40 | -33.33963 | -70.78875 | 7657 ft | 290 kts | 357° |
| 2026-04-25 15:40 | -33.30639 | -70.79055 | 6562 ft | 285 kts | 358° |
| 2026-04-25 15:40 | -33.28668 | -70.79160 | 5841 ft | 282 kts | 357° |
| 2026-04-25 15:41 | -33.26752 | -70.79262 | 5505 ft | 267 kts | 357° |
| 2026-04-25 15:41 | -33.24957 | -70.79358 | 5358 ft | 250 kts | 357° |
| 2026-04-25 15:41 | -33.23262 | -70.79448 | 5243 ft | 239 kts | 357° |
| 2026-04-25 15:41 | -33.21636 | -70.79534 | 5146 ft | 229 kts | 357° |
| 2026-04-25 15:42 | -33.20086 | -70.79617 | 5046 ft | 222 kts | 357° |
| 2026-04-25 15:42 | -33.18588 | -70.79437 | 4910 ft | 215 kts | 24° |
| 2026-04-25 15:42 | -33.17498 | -70.78318 | 4745 ft | 206 kts | 63° |
| 2026-04-25 15:42 | -33.17197 | -70.76704 | 4589 ft | 200 kts | 98° |
| 2026-04-25 15:43 | -33.17722 | -70.75215 | 4439 ft | 196 kts | 133° |
| 2026-04-25 15:43 | -33.18844 | -70.74354 | 4295 ft | 193 kts | 167° |
| 2026-04-25 15:43 | -33.20139 | -70.74393 | 4194 ft | 181 kts | 198° |
| 2026-04-25 15:43 | -33.21266 | -70.74931 | 4025 ft | 168 kts | 202° |
| 2026-04-25 15:44 | -33.22310 | -70.75438 | 3898 ft | 157 kts | 202° |
| 2026-04-25 15:44 | -33.23289 | -70.75912 | 3787 ft | 149 kts | 201° |
| 2026-04-25 15:44 | -33.24235 | -70.76371 | 3649 ft | 144 kts | 202° |
| 2026-04-25 15:44 | -33.25156 | -70.76818 | 3583 ft | 140 kts | 202° |
| 2026-04-25 15:45 | -33.26059 | -70.77255 | 3471 ft | 139 kts | 202° |
| 2026-04-25 15:45 | -33.26941 | -70.77683 | 3369 ft | 139 kts | 201° |
| 2026-04-25 15:45 | -33.27833 | -70.78116 | 3260 ft | 138 kts | 202° |
| 2026-04-25 15:45 | -33.28136 | -70.78264 | 3238 ft | 139 kts | 202° |
| 2026-04-25 15:46 | -33.29619 | -70.78963 | 3043 ft | 138 kts | 194° |
| 2026-04-25 15:46 | -33.30573 | -70.78969 | 2934 ft | 138 kts | 179° |
| 2026-04-25 15:46 | -33.31535 | -70.78956 | 2769 ft | 138 kts | 179° |
| 2026-04-25 15:46 | -33.32488 | -70.78926 | 2577 ft | 137 kts | 178° |
| 2026-04-25 15:47 | -33.33441 | -70.78885 | 2399 ft | 137 kts | 178° |
| 2026-04-25 15:47 | -33.34391 | -70.78839 | 2223 ft | 137 kts | 178° |
| 2026-04-25 15:47 | -33.35340 | -70.78791 | 2046 ft | 136 kts | 178° |
| 2026-04-25 15:47 | -33.36285 | -70.78743 | 1872 ft | 135 kts | 178° |
| 2026-04-25 15:48 | -33.37223 | -70.78693 | 1682 ft | 134 kts | 178° |
| 2026-04-25 15:48 | -33.38143 | -70.78648 | 1569 ft | 125 kts | 179° |
| 2026-04-25 15:48 | -33.38872 | -70.78611 | 1565 ft | 81 kts | 178° |
| 2026-04-25 15:48 | -33.39265 | -70.78579 | 1564 ft | 38 kts | 175° |
| 2026-04-25 15:49 | -33.39482 | -70.78596 | 1564 ft | 23 kts | 194° |
| 2026-04-25 15:49 | -33.39633 | -70.78664 | 1564 ft | 24 kts | 208° |
| 2026-04-25 15:49 | -33.39781 | -70.78753 | 1564 ft | 24 kts | 207° |
| 2026-04-25 15:49 | -33.39934 | -70.78849 | 1564 ft | 25 kts | 207° |
| 2026-04-25 15:50 | -33.40085 | -70.78862 | 1564 ft | 20 kts | 180° |
| 2026-04-25 15:50 | -33.40113 | -70.78934 | 1564 ft | 10 kts | 294° |
| 2026-04-25 15:50 | -33.40058 | -70.78959 | 1564 ft | 4 kts | 357° |
| 2026-04-25 15:50 | -33.40044 | -70.78959 | 1564 ft | 0 kts | 358° |
| 2026-04-25 15:51 | -33.40043 | -70.78959 | 1564 ft | 0 kts | 358° |